Time;durP1;ratioP1;P1;durP2;ratioP2;P2;SDS_P1;SDS_P2;PMS_P1;PMS_P2;Temp;Humidity;BMP_temperature;BMP_pressure;BME280_temperature;BME280_humidity;BME280_pressure;Samples;Min_cycle;Max_cycle;Signal;HPM_P1;HPM_P2
2023/12/15 00:00:51;;;;;;;;;;;;;;;2.37;78.64;101241.23;106500;1271;97941;-64
2023/12/15 00:03:39;;;;;;;;;;;;;;;2.34;78.58;101243.82;106482;1273;111593;-62
2023/12/15 00:06:08;;;;;;;;;;;;;;;2.35;78.67;101244.31;106468;1273;107983;-63
2023/12/15 00:08:36;;;;;;;;;;;;;;;2.35;78.46;101252.30;106459;1271;108442;-63
2023/12/15 00:11:05;;;;;;;;;;;;;;;2.34;78.75;101259.20;106490;1268;97877;-64
2023/12/15 00:13:33;;;;;;;;;;;;;;;2.34;78.36;101271.09;106486;1273;97951;-64
2023/12/15 00:16:02;;;;;;;;;;;;;;;2.31;78.40;101277.96;106458;1272;111527;-63
2023/12/15 00:18:30;;;;;;;;;;;;;;;2.30;78.67;101278.90;106440;1273;107611;-62
2023/12/15 00:20:58;;;;;;;;;;;;;;;2.27;78.69;101274.77;106436;1268;106786;-62
2023/12/15 00:23:26;;;;;;;;;;;;;;;2.26;78.81;101274.30;106393;1270;97742;-64
2023/12/15 00:25:54;;;;;;;;;;;;;;;2.24;78.89;101268.89;106492;1270;97766;-62
2023/12/15 00:28:22;;;;;;;;;;;;;;;2.21;78.53;101266.55;106407;1274;112215;-63
2023/12/15 00:30:50;;;;;;;;;;;;;;;2.17;78.64;101266.56;106509;1268;108408;-63
2023/12/15 00:33:18;;;;;;;;;;;;;;;2.12;78.79;101267.85;106479;1273;108349;-65
2023/12/15 00:35:48;;;;;;;;;;;;;;;2.06;79.02;101275.17;106459;1270;97846;-65
2023/12/15 00:38:17;;;;;;;;;;;;;;;2.03;79.02;101288.07;106397;1268;98153;-63
2023/12/15 00:40:45;;;;;;;;;;;;;;;1.99;79.20;101287.70;106496;1272;111295;-62
2023/12/15 00:43:14;;;;;;;;;;;;;;;2.00;79.21;101280.60;106463;1268;108385;-64
2023/12/15 00:45:42;;;;;;;;;;;;;;;1.98;79.39;101285.45;106460;1268;107721;-63
2023/12/15 00:48:10;;;;;;;;;;;;;;;1.97;79.41;101299.45;106430;1272;97830;-64
2023/12/15 00:50:39;;;;;;;;;;;;;;;1.95;79.52;101302.92;106496;1268;98005;-64
2023/12/15 00:53:07;;;;;;;;;;;;;;;1.92;79.38;101304.67;106437;1271;110988;-63
2023/12/15 00:55:35;;;;;;;;;;;;;;;1.90;79.51;101302.80;106512;1269;107071;-63
2023/12/15 00:58:04;;;;;;;;;;;;;;;1.90;79.38;101307.02;106471;1269;107744;-63
2023/12/15 01:00:33;;;;;;;;;;;;;;;1.91;79.56;101314.23;106458;1268;98490;-64
2023/12/15 01:03:01;;;;;;;;;;;;;;;1.94;79.47;101325.95;106486;1273;97754;-62
2023/12/15 01:05:29;;;;;;;;;;;;;;;1.97;79.48;101335.73;106495;1269;113108;-63
2023/12/15 01:07:58;;;;;;;;;;;;;;;2.02;79.73;101328.45;106453;1273;108361;-66
2023/12/15 01:10:26;;;;;;;;;;;;;;;2.10;79.64;101332.34;106480;1268;107818;-63
2023/12/15 01:12:54;;;;;;;;;;;;;;;2.19;79.70;101337.80;106464;1272;98052;-64
2023/12/15 01:15:22;;;;;;;;;;;;;;;2.27;79.59;101339.75;106498;1273;97973;-65
2023/12/15 01:17:50;;;;;;;;;;;;;;;2.35;79.65;101337.10;106483;1272;111472;-65
2023/12/15 01:20:23;;;;;;;;;;;;;;;2.42;79.54;101336.23;106466;1268;108380;-63
2023/12/15 01:22:51;;;;;;;;;;;;;;;2.45;79.21;101339.10;106493;1268;107843;-63
2023/12/15 01:25:20;;;;;;;;;;;;;;;2.49;79.43;101346.69;106502;1272;97827;-63
2023/12/15 01:27:48;;;;;;;;;;;;;;;2.53;79.15;101346.73;106462;1271;97897;-63
2023/12/15 01:30:16;;;;;;;;;;;;;;;2.54;78.86;101349.88;106460;1269;112939;-65
2023/12/15 01:32:44;;;;;;;;;;;;;;;2.54;78.52;101350.21;106379;1273;108444;-66
2023/12/15 01:35:12;;;;;;;;;;;;;;;2.51;78.27;101351.41;106280;1272;108114;-66
2023/12/15 01:37:41;;;;;;;;;;;;;;;2.45;78.01;101353.27;106268;1272;98022;-65
2023/12/15 01:40:10;;;;;;;;;;;;;;;2.35;77.54;101357.63;106314;1269;97935;-66
2023/12/15 01:42:38;;;;;;;;;;;;;;;2.32;78.09;101359.86;106366;1270;111726;-68
2023/12/15 01:45:06;;;;;;;;;;;;;;;2.33;78.23;101360.19;106497;1268;108031;-65
2023/12/15 01:47:35;;;;;;;;;;;;;;;2.32;78.06;101363.42;106452;1268;107208;-65
2023/12/15 01:50:05;;;;;;;;;;;;;;;2.32;78.26;101369.58;106387;1270;97847;-64
2023/12/15 01:52:33;;;;;;;;;;;;;;;2.33;78.25;101374.86;106442;1272;97858;-63
2023/12/15 01:55:01;;;;;;;;;;;;;;;2.28;77.91;101379.68;106503;1268;112270;-65
2023/12/15 01:57:30;;;;;;;;;;;;;;;2.24;78.14;101381.84;106485;1268;108460;-63
2023/12/15 01:59:59;;;;;;;;;;;;;;;2.14;77.88;101386.12;106443;1272;108369;-63
2023/12/15 02:02:28;;;;;;;;;;;;;;;2.09;78.09;101396.80;106460;1272;97897;-63
2023/12/15 02:04:56;;;;;;;;;;;;;;;2.06;78.12;101409.33;106455;1271;97872;-66
2023/12/15 02:07:25;;;;;;;;;;;;;;;2.06;78.37;101413.74;106491;1272;111889;-66
2023/12/15 02:09:53;;;;;;;;;;;;;;;2.04;78.32;101418.77;106441;1272;108689;-66
2023/12/15 02:12:21;;;;;;;;;;;;;;;2.05;78.42;101416.98;106420;1272;108738;-65
2023/12/15 02:14:50;;;;;;;;;;;;;;;2.04;78.39;101417.33;106461;1268;97855;-67
2023/12/15 02:17:18;;;;;;;;;;;;;;;2.06;78.37;101417.61;106402;1273;97788;-66
2023/12/15 02:19:46;;;;;;;;;;;;;;;2.06;78.17;101421.70;106399;1272;111887;-66
2023/12/15 02:22:14;;;;;;;;;;;;;;;2.11;78.14;101433.72;106467;1268;108786;-63
2023/12/15 02:24:43;;;;;;;;;;;;;;;2.12;77.77;101438.40;106498;1269;108059;-64
2023/12/15 02:27:11;;;;;;;;;;;;;;;2.14;77.69;101434.80;106483;1269;97887;-66
2023/12/15 02:29:39;;;;;;;;;;;;;;;2.18;77.57;101437.11;106443;1272;98690;-63
2023/12/15 02:32:07;;;;;;;;;;;;;;;2.23;77.59;101436.35;106447;1273;111633;-64
2023/12/15 02:34:35;;;;;;;;;;;;;;;2.30;77.48;101441.92;106448;1270;111418;-64
2023/12/15 02:37:04;;;;;;;;;;;;;;;2.34;77.08;101450.41;106459;1268;106948;-67
2023/12/15 02:39:32;;;;;;;;;;;;;;;2.36;76.56;101452.11;106458;1270;97854;-66
2023/12/15 02:42:00;;;;;;;;;;;;;;;2.36;76.28;101450.86;106488;1271;97888;-66
2023/12/15 02:44:29;;;;;;;;;;;;;;;2.34;76.26;101447.39;106384;1270;112000;-66
2023/12/15 02:46:57;;;;;;;;;;;;;;;2.36;76.08;101446.44;106463;1270;108782;-66
2023/12/15 02:49:25;;;;;;;;;;;;;;;2.42;76.79;101448.66;106401;1272;108083;-65
2023/12/15 02:51:53;;;;;;;;;;;;;;;2.48;76.97;101452.28;106447;1272;97964;-64
2023/12/15 02:54:21;;;;;;;;;;;;;;;2.51;76.32;101458.71;106481;1270;97858;-63
2023/12/15 02:56:49;;;;;;;;;;;;;;;2.53;75.95;101456.16;106389;1274;111735;-63
2023/12/15 02:59:17;;;;;;;;;;;;;;;2.51;75.89;101454.10;106556;1270;108359;-63
2023/12/15 03:01:45;;;;;;;;;;;;;;;2.51;76.07;101449.51;106480;1273;108163;-62
2023/12/15 03:04:13;;;;;;;;;;;;;;;2.45;75.56;101449.58;106487;1273;97926;-63
2023/12/15 03:06:42;;;;;;;;;;;;;;;2.35;75.63;101458.70;106499;1268;97904;-67
2023/12/15 03:09:11;;;;;;;;;;;;;;;2.25;75.69;101460.39;106361;1270;111241;-66
2023/12/15 03:11:40;;;;;;;;;;;;;;;2.17;76.08;101463.68;106483;1270;108327;-65
2023/12/15 03:14:08;;;;;;;;;;;;;;;2.14;76.21;101472.50;106485;1270;108211;-67
2023/12/15 03:16:36;;;;;;;;;;;;;;;2.12;76.35;101483.91;106419;1273;97849;-67
2023/12/15 03:19:04;;;;;;;;;;;;;;;2.10;76.56;101493.04;106419;1269;97870;-67
2023/12/15 03:21:32;;;;;;;;;;;;;;;2.08;76.82;101500.52;106464;1270;111878;-64
2023/12/15 03:24:01;;;;;;;;;;;;;;;2.11;76.93;101508.38;106545;1270;108685;-63
2023/12/15 03:26:29;;;;;;;;;;;;;;;2.14;77.08;101509.98;106410;1272;108524;-65
2023/12/15 03:28:58;;;;;;;;;;;;;;;2.22;77.04;101516.77;106433;1273;97863;-64
2023/12/15 03:31:26;;;;;;;;;;;;;;;2.29;77.25;101524.78;106464;1268;97914;-64
2023/12/15 03:33:54;;;;;;;;;;;;;;;2.40;77.51;101530.73;106510;1273;111513;-63
2023/12/15 03:36:22;;;;;;;;;;;;;;;2.46;77.35;101533.25;106461;1271;107705;-63
2023/12/15 03:38:50;;;;;;;;;;;;;;;2.47;76.87;101532.89;106445;1273;108015;-66
2023/12/15 03:41:18;;;;;;;;;;;;;;;2.46;76.65;101532.58;106448;1271;97773;-66
2023/12/15 03:43:46;;;;;;;;;;;;;;;2.48;76.81;101530.69;106485;1272;98252;-66
2023/12/15 03:46:14;;;;;;;;;;;;;;;2.52;76.82;101534.11;106489;1271;111881;-66
2023/12/15 03:48:42;;;;;;;;;;;;;;;2.56;77.09;101535.90;106479;1268;108394;-67
2023/12/15 03:51:11;;;;;;;;;;;;;;;2.62;77.15;101540.95;106393;1271;107439;-67
2023/12/15 03:53:39;;;;;;;;;;;;;;;2.66;77.19;101543.76;106444;1273;97937;-64
2023/12/15 03:56:08;;;;;;;;;;;;;;;2.70;76.74;101548.05;106462;1270;97961;-64
2023/12/15 03:58:36;;;;;;;;;;;;;;;2.68;76.62;101548.84;106474;1269;112105;-63
2023/12/15 04:01:04;;;;;;;;;;;;;;;2.68;76.53;101547.08;106512;1273;107690;-64
2023/12/15 04:03:32;;;;;;;;;;;;;;;2.68;76.58;101551.49;106499;1270;107228;-64
2023/12/15 04:06:01;;;;;;;;;;;;;;;2.67;76.55;101552.40;106512;1269;97854;-65
2023/12/15 04:08:30;;;;;;;;;;;;;;;2.68;76.67;101554.16;106449;1273;97975;-68
2023/12/15 04:10:58;;;;;;;;;;;;;;;2.70;76.92;101554.40;106513;1270;112017;-68
2023/12/15 04:13:27;;;;;;;;;;;;;;;2.72;76.85;101557.89;106499;1270;108680;-69
2023/12/15 04:15:55;;;;;;;;;;;;;;;2.70;76.81;101561.85;106446;1273;108476;-66
2023/12/15 04:18:27;;;;;;;;;;;;;;;2.72;76.77;101569.23;106425;1270;98073;-66
2023/12/15 04:20:55;;;;;;;;;;;;;;;2.70;76.82;101569.80;106480;1273;97788;-66
2023/12/15 04:23:23;;;;;;;;;;;;;;;2.68;76.41;101569.00;106513;1268;111627;-65
2023/12/15 04:25:51;;;;;;;;;;;;;;;2.62;76.72;101570.30;106523;1269;108364;-65
2023/12/15 04:28:20;;;;;;;;;;;;;;;2.56;76.73;101580.16;106448;1270;107893;-64
2023/12/15 04:30:48;;;;;;;;;;;;;;;2.51;76.73;101583.54;106475;1273;97942;-63
2023/12/15 04:33:35;;;;;;;;;;;;;;;2.50;77.13;101585.52;106504;1273;97898;-64
2023/12/15 04:36:03;;;;;;;;;;;;;;;2.51;77.22;101586.55;106510;1270;111463;-64
2023/12/15 04:38:31;;;;;;;;;;;;;;;2.54;77.41;101588.21;106543;1271;107745;-65
2023/12/15 04:41:00;;;;;;;;;;;;;;;2.55;77.32;101594.55;106448;1270;107846;-65
2023/12/15 04:43:28;;;;;;;;;;;;;;;2.50;77.35;101603.77;106446;1271;97887;-68
2023/12/15 04:45:56;;;;;;;;;;;;;;;2.42;77.59;101614.20;106487;1272;97846;-65
2023/12/15 04:48:24;;;;;;;;;;;;;;;2.39;77.95;101616.61;106455;1272;110904;-66
2023/12/15 04:50:52;;;;;;;;;;;;;;;2.36;78.14;101616.89;106479;1268;108435;-64
2023/12/15 04:53:21;;;;;;;;;;;;;;;2.34;78.13;101622.83;106423;1268;108460;-64
2023/12/15 04:55:49;;;;;;;;;;;;;;;2.34;78.36;101621.76;106487;1269;97854;-64
2023/12/15 04:58:17;;;;;;;;;;;;;;;2.38;78.52;101619.32;106440;1270;97849;-67
2023/12/15 05:00:45;;;;;;;;;;;;;;;2.41;78.50;101614.07;106486;1269;112155;-63
2023/12/15 05:03:14;;;;;;;;;;;;;;;2.42;78.49;101618.98;106464;1269;107897;-65
2023/12/15 05:05:46;;;;;;;;;;;;;;;2.41;78.55;101620.61;106477;1268;108633;-65
2023/12/15 05:08:14;;;;;;;;;;;;;;;2.41;78.51;101632.63;106415;1272;97881;-64
2023/12/15 05:10:42;;;;;;;;;;;;;;;2.42;78.37;101649.96;106494;1268;97882;-65
2023/12/15 05:13:11;;;;;;;;;;;;;;;2.43;78.60;101656.13;106452;1268;111990;-66
2023/12/15 05:15:39;;;;;;;;;;;;;;;2.45;78.47;101661.15;106479;1270;108332;-67
2023/12/15 05:18:07;;;;;;;;;;;;;;;2.48;78.34;101669.70;106447;1271;108436;-65
2023/12/15 05:20:38;;;;;;;;;;;;;;;2.48;78.61;101665.80;106527;1270;97848;-66
2023/12/15 05:23:08;;;;;;;;;;;;;;;2.53;78.63;101667.92;106454;1268;97846;-65
2023/12/15 05:25:37;;;;;;;;;;;;;;;2.57;78.61;101681.05;106427;1268;110387;-65
2023/12/15 05:28:05;;;;;;;;;;;;;;;2.59;78.63;101680.09;106470;1268;108308;-65
2023/12/15 05:30:33;;;;;;;;;;;;;;;2.66;78.62;101667.24;106435;1268;110011;-63
2023/12/15 05:33:01;;;;;;;;;;;;;;;2.66;78.32;101669.54;106422;1268;97856;-64
2023/12/15 05:35:29;;;;;;;;;;;;;;;2.64;78.45;101680.06;106516;1268;98338;-64
2023/12/15 05:37:58;;;;;;;;;;;;;;;2.64;78.48;101688.71;106505;1268;111034;-65
2023/12/15 05:40:26;;;;;;;;;;;;;;;2.65;78.43;101695.41;106488;1268;108777;-62
2023/12/15 05:42:54;;;;;;;;;;;;;;;2.64;77.97;101710.69;106468;1272;108351;-66
2023/12/15 05:45:22;;;;;;;;;;;;;;;2.59;78.34;101717.30;106459;1271;97853;-65
2023/12/15 05:47:50;;;;;;;;;;;;;;;2.60;78.39;101721.68;106327;1268;98034;-66
2023/12/15 05:50:18;;;;;;;;;;;;;;;2.56;77.92;101729.09;106287;1269;111896;-65
2023/12/15 05:52:46;;;;;;;;;;;;;;;2.57;78.38;101741.63;106296;1268;107917;-66
2023/12/15 05:55:14;;;;;;;;;;;;;;;2.58;78.59;101745.83;106258;1268;109763;-66
2023/12/15 05:57:42;;;;;;;;;;;;;;;2.62;78.54;101748.31;106248;1268;97968;-66
2023/12/15 06:00:11;;;;;;;;;;;;;;;2.66;78.12;101752.77;106219;1268;97983;-64
2023/12/15 06:02:40;;;;;;;;;;;;;;;2.68;78.09;101768.64;106253;1268;112222;-65
2023/12/15 06:05:08;;;;;;;;;;;;;;;2.70;77.89;101768.38;106230;1270;108232;-66
2023/12/15 06:07:36;;;;;;;;;;;;;;;2.74;78.10;101769.65;106263;1273;107420;-67
2023/12/15 06:10:06;;;;;;;;;;;;;;;2.78;78.10;101771.25;106247;1271;97941;-66
2023/12/15 06:12:34;;;;;;;;;;;;;;;2.82;78.04;101773.58;106462;1268;98038;-65
2023/12/15 06:15:02;;;;;;;;;;;;;;;2.85;78.05;101776.13;106487;1268;111156;-66
2023/12/15 06:17:31;;;;;;;;;;;;;;;2.86;77.29;101781.21;106469;1268;108388;-65
2023/12/15 06:19:59;;;;;;;;;;;;;;;2.84;77.33;101782.18;106457;1271;108392;-65
2023/12/15 06:22:27;;;;;;;;;;;;;;;2.79;77.09;101782.02;106481;1271;97843;-65
2023/12/15 06:24:55;;;;;;;;;;;;;;;2.76;77.50;101786.02;106480;1268;97892;-65
2023/12/15 06:27:23;;;;;;;;;;;;;;;2.75;77.77;101797.23;106493;1269;111713;-65
2023/12/15 06:29:51;;;;;;;;;;;;;;;2.78;77.71;101813.06;106474;1268;108155;-66
2023/12/15 06:32:19;;;;;;;;;;;;;;;2.79;77.84;101819.92;106473;1270;108369;-65
2023/12/15 06:34:47;;;;;;;;;;;;;;;2.81;77.65;101822.88;106438;1268;97912;-65
2023/12/15 06:37:15;;;;;;;;;;;;;;;2.79;77.59;101824.89;106507;1268;97874;-64
2023/12/15 06:39:45;;;;;;;;;;;;;;;2.74;77.17;101828.27;106499;1268;112054;-63
2023/12/15 06:42:13;;;;;;;;;;;;;;;2.68;77.27;101829.42;106477;1271;108580;-65
2023/12/15 06:44:41;;;;;;;;;;;;;;;2.69;77.43;101829.38;106426;1268;107945;-64
2023/12/15 06:47:09;;;;;;;;;;;;;;;2.71;77.52;101829.09;106393;1270;97884;-65
2023/12/15 06:49:38;;;;;;;;;;;;;;;2.71;77.19;101832.84;106265;1268;97764;-66
2023/12/15 06:52:07;;;;;;;;;;;;;;;2.72;77.45;101836.70;106311;1269;111723;-66
2023/12/15 06:54:37;;;;;;;;;;;;;;;2.72;77.48;101840.94;106308;1268;108645;-66
2023/12/15 06:57:06;;;;;;;;;;;;;;;2.73;77.65;101846.38;106237;1269;108303;-66
2023/12/15 06:59:34;;;;;;;;;;;;;;;2.76;77.30;101846.98;106269;1270;97815;-66
2023/12/15 07:02:03;;;;;;;;;;;;;;;2.77;77.52;101842.51;106236;1268;97844;-66
2023/12/15 07:04:31;;;;;;;;;;;;;;;2.80;77.57;101842.20;106273;1268;111844;-68
2023/12/15 07:06:59;;;;;;;;;;;;;;;2.87;77.54;101841.08;106505;1267;107916;-67
2023/12/15 07:09:27;;;;;;;;;;;;;;;2.91;77.36;101849.75;106298;1268;106890;-66
2023/12/15 07:11:57;;;;;;;;;;;;;;;2.95;77.63;101852.46;106244;1268;98515;-66
2023/12/15 07:14:25;;;;;;;;;;;;;;;2.98;77.27;101866.50;106350;1268;97873;-66
2023/12/15 07:16:53;;;;;;;;;;;;;;;3.02;77.39;101870.97;106175;1269;113897;-66
2023/12/15 07:19:21;;;;;;;;;;;;;;;3.07;77.36;101871.30;106242;1270;108865;-66
2023/12/15 07:21:50;;;;;;;;;;;;;;;3.12;76.74;101868.64;106196;1270;108345;-65
2023/12/15 07:24:18;;;;;;;;;;;;;;;3.09;76.59;101866.98;106243;1272;97984;-67
2023/12/15 07:26:46;;;;;;;;;;;;;;;3.07;76.75;101871.48;106379;1268;97903;-66
2023/12/15 07:29:14;;;;;;;;;;;;;;;3.05;76.34;101875.84;106448;1273;111919;-66
2023/12/15 07:31:43;;;;;;;;;;;;;;;3.06;76.59;101874.72;106481;1268;107492;-67
2023/12/15 07:34:12;;;;;;;;;;;;;;;3.07;76.49;101883.34;106474;1269;107997;-66
2023/12/15 07:36:40;;;;;;;;;;;;;;;3.09;76.47;101893.21;106447;1268;97961;-64
2023/12/15 07:39:09;;;;;;;;;;;;;;;3.06;76.00;101899.00;106489;1268;97773;-64
2023/12/15 07:41:38;;;;;;;;;;;;;;;2.97;75.88;101906.08;106538;1272;111836;-63
2023/12/15 07:44:06;;;;;;;;;;;;;;;2.98;76.10;101909.23;106455;1270;108024;-65
2023/12/15 07:46:34;;;;;;;;;;;;;;;3.00;76.24;101918.18;106460;1268;107961;-62
2023/12/15 07:49:02;;;;;;;;;;;;;;;3.05;76.22;101919.58;106433;1273;97871;-63
2023/12/15 07:51:31;;;;;;;;;;;;;;;3.15;76.35;101919.91;106472;1268;97870;-63
2023/12/15 07:53:59;;;;;;;;;;;;;;;3.25;76.32;101932.48;106473;1268;111623;-66
2023/12/15 07:56:28;;;;;;;;;;;;;;;3.29;75.99;101943.13;106535;1268;108849;-65
2023/12/15 07:58:56;;;;;;;;;;;;;;;3.34;76.27;101947.20;106378;1268;108606;-69
2023/12/15 08:01:24;;;;;;;;;;;;;;;3.41;75.98;101950.65;106393;1268;98533;-65
2023/12/15 08:03:53;;;;;;;;;;;;;;;3.50;76.21;101961.48;106483;1269;97843;-65
2023/12/15 08:06:21;;;;;;;;;;;;;;;3.60;76.07;101963.73;106440;1268;111910;-66
2023/12/15 08:08:52;;;;;;;;;;;;;;;3.67;75.93;101964.86;106470;1273;108691;-66
2023/12/15 08:11:22;;;;;;;;;;;;;;;3.73;75.90;101966.05;106444;1268;106352;-66
2023/12/15 08:13:50;;;;;;;;;;;;;;;3.81;75.93;101972.48;106458;1268;97883;-66
2023/12/15 08:16:18;;;;;;;;;;;;;;;3.86;74.96;101975.30;106502;1268;97736;-66
2023/12/15 08:18:46;;;;;;;;;;;;;;;3.91;74.95;101977.73;106509;1268;111369;-69
2023/12/15 08:21:15;;;;;;;;;;;;;;;3.98;74.47;101983.66;106447;1268;108411;-66
2023/12/15 08:23:43;;;;;;;;;;;;;;;3.97;73.15;101986.89;106486;1268;107770;-65
2023/12/15 08:26:18;;;;;;;;;;;;;;;3.89;72.06;101992.73;106447;1268;97895;-66
2023/12/15 08:28:47;;;;;;;;;;;;;;;3.77;71.61;101998.00;106399;1268;97867;-65
2023/12/15 08:31:15;;;;;;;;;;;;;;;3.67;72.25;102005.84;106482;1269;112715;-67
2023/12/15 08:33:44;;;;;;;;;;;;;;;3.67;73.28;102004.60;106431;1268;107700;-66
2023/12/15 08:36:12;;;;;;;;;;;;;;;3.70;73.03;102005.20;106439;1268;108084;-64
2023/12/15 08:38:41;;;;;;;;;;;;;;;3.71;72.39;102022.55;106489;1268;97923;-66
2023/12/15 08:41:10;;;;;;;;;;;;;;;3.68;72.06;102021.95;106532;1270;97735;-66
2023/12/15 08:43:38;;;;;;;;;;;;;;;3.62;72.06;102014.23;106460;1268;111392;-65
2023/12/15 08:46:07;;;;;;;;;;;;;;;3.57;72.31;102023.80;106448;1268;107733;-66
2023/12/15 08:48:35;;;;;;;;;;;;;;;3.57;72.33;102029.48;106506;1268;108671;-66
2023/12/15 08:51:03;;;;;;;;;;;;;;;3.58;72.36;102029.08;106446;1268;97735;-67
2023/12/15 08:53:31;;;;;;;;;;;;;;;3.60;71.13;102032.05;106463;1268;97814;-66
2023/12/15 08:55:59;;;;;;;;;;;;;;;3.56;71.68;102034.84;106426;1268;111962;-72
2023/12/15 08:58:28;;;;;;;;;;;;;;;3.59;72.27;102029.41;106411;1268;108929;-67
2023/12/15 09:00:57;;;;;;;;;;;;;;;3.64;72.22;102026.36;106410;1268;108057;-65
2023/12/15 09:03:25;;;;;;;;;;;;;;;3.67;72.47;102031.06;106365;1272;97945;-67
2023/12/15 09:05:54;;;;;;;;;;;;;;;3.72;72.34;102029.95;106525;1273;97948;-65
2023/12/15 09:08:42;;;;;;;;;;;;;;;3.76;72.23;102033.73;106485;1268;112503;-66
2023/12/15 09:11:11;;;;;;;;;;;;;;;3.83;72.59;102034.50;106439;1268;108442;-66
2023/12/15 09:13:40;;;;;;;;;;;;;;;3.89;71.93;102034.25;106423;1272;107803;-67
2023/12/15 09:16:08;;;;;;;;;;;;;;;3.92;71.90;102041.25;106432;1268;97862;-66
2023/12/15 09:18:36;;;;;;;;;;;;;;;3.94;72.02;102041.35;106465;1268;97929;-66
2023/12/15 09:21:04;;;;;;;;;;;;;;;3.96;71.62;102031.13;106524;1268;111779;-65
2023/12/15 09:23:32;;;;;;;;;;;;;;;3.96;71.80;102040.36;106502;1268;108690;-66
2023/12/15 09:26:01;;;;;;;;;;;;;;;3.95;71.03;102045.95;106494;1268;108690;-65
2023/12/15 09:28:29;;;;;;;;;;;;;;;3.95;70.29;102043.08;106472;1268;97795;-66
2023/12/15 09:30:57;;;;;;;;;;;;;;;3.89;70.48;102045.77;106460;1268;97898;-66
2023/12/15 09:33:25;;;;;;;;;;;;;;;3.84;71.14;102045.29;106509;1268;112172;-66
2023/12/15 09:35:55;;;;;;;;;;;;;;;3.84;71.46;102051.31;106463;1268;107878;-66
2023/12/15 09:38:23;;;;;;;;;;;;;;;3.84;72.19;102057.37;106437;1268;108977;-66
2023/12/15 09:40:51;;;;;;;;;;;;;;;3.80;72.33;102058.05;106463;1268;97880;-66
2023/12/15 09:43:19;;;;;;;;;;;;;;;3.75;72.68;102058.58;106442;1272;98046;-67
2023/12/15 09:45:47;;;;;;;;;;;;;;;3.74;72.73;102058.79;106467;1268;111787;-67
2023/12/15 09:48:17;;;;;;;;;;;;;;;3.72;72.69;102060.64;106490;1268;107409;-65
2023/12/15 09:50:51;;;;;;;;;;;;;;;3.70;72.15;102066.95;106474;1268;108795;-66
2023/12/15 09:53:19;;;;;;;;;;;;;;;3.66;72.63;102069.39;106388;1268;97735;-66
2023/12/15 09:55:48;;;;;;;;;;;;;;;3.67;73.10;102073.81;106475;1268;97875;-66
2023/12/15 09:58:17;;;;;;;;;;;;;;;3.67;73.26;102077.72;106472;1268;111966;-66
2023/12/15 10:00:45;;;;;;;;;;;;;;;3.69;72.82;102078.35;106469;1272;109520;-69
2023/12/15 10:03:14;;;;;;;;;;;;;;;3.70;72.79;102085.95;106525;1268;107269;-66
2023/12/15 10:05:43;;;;;;;;;;;;;;;3.73;72.45;102090.94;106550;1268;97905;-66
2023/12/15 10:08:11;;;;;;;;;;;;;;;3.74;72.49;102092.68;106260;1268;97893;-65
2023/12/15 10:10:39;;;;;;;;;;;;;;;3.79;72.62;102092.52;106482;1270;111360;-66
2023/12/15 10:13:08;;;;;;;;;;;;;;;3.80;72.71;102085.38;106395;1268;108105;-66
2023/12/15 10:15:36;;;;;;;;;;;;;;;3.82;72.14;102079.79;105861;1273;756869;-66
2023/12/15 10:18:04;;;;;;;;;;;;;;;3.81;71.97;102085.52;106447;1268;97856;-66
2023/12/15 10:20:33;;;;;;;;;;;;;;;3.82;72.35;102093.13;106530;1268;97872;-67
2023/12/15 10:23:02;;;;;;;;;;;;;;;3.84;72.50;102099.06;106532;1271;111159;-66
2023/12/15 10:25:30;;;;;;;;;;;;;;;3.85;72.21;102097.58;106539;1268;108918;-65
2023/12/15 10:27:59;;;;;;;;;;;;;;;3.86;72.22;102100.76;106482;1268;107652;-66
2023/12/15 10:30:30;;;;;;;;;;;;;;;3.88;72.07;102099.59;106529;1268;97916;-66
2023/12/15 10:32:58;;;;;;;;;;;;;;;3.90;72.07;102091.89;106498;1268;97757;-66
2023/12/15 10:35:29;;;;;;;;;;;;;;;3.90;71.95;102092.60;106502;1268;111449;-66
2023/12/15 10:37:58;;;;;;;;;;;;;;;3.89;71.51;102097.08;106506;1268;107916;-66
2023/12/15 10:40:26;;;;;;;;;;;;;;;3.89;71.92;102099.78;106488;1268;108369;-68
2023/12/15 10:42:55;;;;;;;;;;;;;;;3.91;72.32;102106.40;106323;1268;97879;-67
2023/12/15 10:45:24;;;;;;;;;;;;;;;3.95;71.97;102107.69;106346;1268;97847;-65
2023/12/15 10:47:54;;;;;;;;;;;;;;;3.92;72.11;102103.00;106272;1268;111220;-66
2023/12/15 10:50:22;;;;;;;;;;;;;;;3.97;72.35;102109.72;106311;1272;108197;-67
2023/12/15 10:52:51;;;;;;;;;;;;;;;3.99;72.17;102109.11;106283;1268;108475;-66
2023/12/15 10:55:20;;;;;;;;;;;;;;;4.02;72.20;102110.40;106296;1268;97871;-66
2023/12/15 10:57:48;;;;;;;;;;;;;;;4.06;72.27;102106.89;106304;1268;97748;-68
2023/12/15 11:00:20;;;;;;;;;;;;;;;4.14;72.53;102103.77;106312;1268;113001;-66
2023/12/15 11:02:48;;;;;;;;;;;;;;;4.19;71.75;102100.34;106317;1268;108208;-68
2023/12/15 11:05:17;;;;;;;;;;;;;;;4.19;71.62;102104.06;106323;1268;106974;-67
2023/12/15 11:07:56;;;;;;;;;;;;;;;4.20;71.47;102103.13;106289;1270;97887;-66
2023/12/15 11:10:25;;;;;;;;;;;;;;;4.22;71.59;102106.98;106336;1268;97972;-66
2023/12/15 11:12:53;;;;;;;;;;;;;;;4.24;71.61;102099.08;106324;1268;112203;-66
2023/12/15 11:15:22;;;;;;;;;;;;;;;4.25;71.16;102101.88;106312;1270;108466;-67
2023/12/15 11:17:54;;;;;;;;;;;;;;;4.21;71.33;102103.82;106293;1268;107854;-67
2023/12/15 11:20:24;;;;;;;;;;;;;;;4.17;71.06;102101.66;106462;1268;97867;-67
2023/12/15 11:22:58;;;;;;;;;;;;;;;4.10;71.30;102105.51;106514;1268;97875;-66
2023/12/15 11:25:30;;;;;;;;;;;;;;;4.05;71.33;102109.60;106478;1268;111379;-67
2023/12/15 11:28:08;;;;;;;;;;;;;;;4.00;71.60;102111.02;106334;1268;108564;-66
2023/12/15 11:30:40;;;;;;;;;;;;;;;3.97;71.78;102113.45;106297;1273;109987;-67
2023/12/15 11:33:24;;;;;;;;;;;;;;;3.96;71.96;102111.02;106293;1268;97965;-67
2023/12/15 11:35:58;;;;;;;;;;;;;;;3.92;71.99;102127.84;106320;1270;97766;-66
2023/12/15 11:38:27;;;;;;;;;;;;;;;3.90;72.45;102138.58;106372;1268;112501;-66
2023/12/15 11:40:56;;;;;;;;;;;;;;;3.90;72.63;102146.05;106349;1268;108099;-67
2023/12/15 11:43:24;;;;;;;;;;;;;;;3.93;73.03;102155.34;106442;1269;108424;-66
2023/12/15 11:45:55;;;;;;;;;;;;;;;3.99;72.97;102155.45;106493;1268;97933;-68
2023/12/15 11:48:23;;;;;;;;;;;;;;;4.02;72.71;102157.66;106451;1268;97868;-67
2023/12/15 11:50:52;;;;;;;;;;;;;;;4.02;72.56;102159.26;106453;1268;111892;-67
2023/12/15 11:53:20;;;;;;;;;;;;;;;4.01;72.78;102159.84;106504;1268;108488;-67
2023/12/15 11:55:49;;;;;;;;;;;;;;;4.02;72.71;102161.39;106509;1268;108723;-66
2023/12/15 11:58:22;;;;;;;;;;;;;;;4.01;72.77;102155.90;106411;1268;97735;-67
2023/12/15 12:00:50;;;;;;;;;;;;;;;4.01;72.80;102160.50;106419;1268;97770;-67
2023/12/15 12:03:22;;;;;;;;;;;;;;;4.03;73.14;102168.96;106453;1268;111602;-69
2023/12/15 12:05:54;;;;;;;;;;;;;;;4.05;73.05;102165.70;106457;1268;108659;-67
2023/12/15 12:08:24;;;;;;;;;;;;;;;4.09;73.37;102169.44;106278;1268;108243;-67
2023/12/15 12:10:55;;;;;;;;;;;;;;;4.17;73.43;102181.58;106458;1268;97751;-67
2023/12/15 12:13:30;;;;;;;;;;;;;;;4.22;73.25;102175.34;106497;1268;97768;-66
2023/12/15 12:15:58;;;;;;;;;;;;;;;4.22;73.06;102177.48;106502;1268;111378;-65
2023/12/15 12:18:26;;;;;;;;;;;;;;;4.22;72.97;102181.02;106595;1268;108977;-64
2023/12/15 12:20:56;;;;;;;;;;;;;;;4.21;72.99;102183.71;106510;1267;108508;-66
2023/12/15 12:23:27;;;;;;;;;;;;;;;4.20;73.06;102191.92;106391;1268;97975;-67
2023/12/15 12:26:11;;;;;;;;;;;;;;;4.19;73.13;102193.41;106475;1268;98561;-66
2023/12/15 12:28:40;;;;;;;;;;;;;;;4.19;73.18;102192.88;106516;1268;111427;-67
2023/12/15 12:31:09;;;;;;;;;;;;;;;4.18;73.05;102202.14;106494;1268;107729;-67
2023/12/15 12:33:37;;;;;;;;;;;;;;;4.17;72.91;102201.11;106483;1268;108719;-71
2023/12/15 12:36:06;;;;;;;;;;;;;;;4.14;73.19;102196.26;106542;1268;97880;-67
2023/12/15 12:38:35;;;;;;;;;;;;;;;4.14;73.19;102199.98;106553;1268;97868;-67